Time,TemperatureF,DewpointF,PressureIn,WindDirection,WindDirectionDegrees,WindSpeedMPH,WindSpeedGustMPH,Humidity,HourlyPrecipIn,Conditions,Clouds,dailyrainin,SoftwareType,DateUTC
2013-03-06 00:02:00,36.0,35.0,30.02,North,10,0.0,6.0,96,0.00,,,0.01,,2013-03-06 05:02:00,
2013-03-06 00:12:00,36.0,35.0,30.02,North,10,0.0,6.0,96,0.00,,,0.01,,2013-03-06 05:12:00,
2013-03-06 00:22:00,36.0,35.0,30.01,North,10,0.0,0.0,96,0.00,,,0.01,,2013-03-06 05:22:00,
2013-03-06 00:32:00,36.0,35.0,30.00,North,10,0.0,1.0,95,0.00,,,0.01,,2013-03-06 05:32:00,
2013-03-06 00:42:00,36.0,35.0,30.00,North,10,0.0,1.0,95,0.00,,,0.01,,2013-03-06 05:42:00,
2013-03-06 00:52:00,36.0,35.0,30.00,NNE,21,1.0,4.0,96,0.00,,,0.01,,2013-03-06 05:52:00,
2013-03-06 01:02:00,35.0,34.0,30.00,North,3,0.0,3.0,96,0.00,,,0.01,,2013-03-06 06:02:00,
2013-03-06 01:11:00,35.0,34.0,30.00,North,3,0.0,3.0,96,0.00,,,0.01,,2013-03-06 06:11:00,
2013-03-06 01:22:00,36.0,35.0,29.99,North,352,1.0,5.0,97,0.00,,,0.01,,2013-03-06 06:22:00,
2013-03-06 01:32:00,36.0,35.0,29.99,North,9,1.0,4.0,96,0.01,,,0.02,,2013-03-06 06:32:00,
2013-03-06 01:42:00,36.0,35.0,29.99,North,9,1.0,4.0,96,0.01,,,0.02,,2013-03-06 06:42:00,
2013-03-06 01:52:00,36.0,35.0,29.99,NNE,20,0.0,3.0,96,0.01,,,0.02,,2013-03-06 06:52:00,
2013-03-06 02:01:00,35.0,34.0,29.99,NNE,20,0.0,2.0,96,0.01,,,0.02,,2013-03-06 07:01:00,
2013-03-06 02:11:00,35.0,34.0,29.99,NNE,20,0.0,2.0,96,0.01,,,0.02,,2013-03-06 07:11:00,
2013-03-06 02:22:00,35.0,34.0,29.99,NNE,20,0.0,3.0,97,0.00,,,0.02,,2013-03-06 07:22:00,
2013-03-06 02:32:00,35.0,34.0,29.99,NNE,20,0.0,0.0,97,0.00,,,0.02,,2013-03-06 07:32:00,
2013-03-06 02:42:00,35.0,34.0,29.99,NNE,20,0.0,0.0,97,0.00,,,0.02,,2013-03-06 07:42:00,
2013-03-06 02:52:00,35.0,34.0,29.99,NNE,19,0.0,1.0,97,0.00,,,0.02,,2013-03-06 07:52:00,
2013-03-06 03:01:00,35.0,34.0,29.99,NNE,19,0.0,1.0,97,0.00,,,0.02,,2013-03-06 08:01:00,
2013-03-06 03:11:00,35.0,34.0,29.99,NNE,19,0.0,1.0,97,0.00,,,0.02,,2013-03-06 08:11:00,
2013-03-06 03:21:00,36.0,35.0,29.99,NNE,20,0.0,0.0,97,0.00,,,0.02,,2013-03-06 08:21:00,
2013-03-06 03:32:00,36.0,35.0,30.00,North,10,0.0,4.0,97,0.00,,,0.02,,2013-03-06 08:32:00,
2013-03-06 03:42:00,36.0,35.0,30.00,North,10,0.0,4.0,97,0.00,,,0.02,,2013-03-06 08:42:00,
2013-03-06 03:52:00,36.0,35.0,30.00,North,9,0.0,1.0,98,0.00,,,0.02,,2013-03-06 08:52:00,
2013-03-06 04:01:00,37.0,36.0,30.00,ENE,63,2.0,8.0,97,0.00,,,0.02,,2013-03-06 09:01:00,
2013-03-06 04:12:00,37.0,36.0,30.00,ENE,63,2.0,8.0,97,0.00,,,0.02,,2013-03-06 09:12:00,
2013-03-06 04:21:00,37.0,36.0,30.00,NE,47,0.0,4.0,96,0.00,,,0.02,,2013-03-06 09:21:00,
2013-03-06 04:32:00,37.0,36.0,30.00,NE,47,0.0,1.0,95,0.00,,,0.02,,2013-03-06 09:32:00,
2013-03-06 04:42:00,37.0,36.0,30.00,NE,47,0.0,1.0,95,0.00,,,0.02,,2013-03-06 09:42:00,
2013-03-06 04:52:00,37.0,36.0,30.00,ENE,58,2.0,8.0,95,0.00,,,0.02,,2013-03-06 09:52:00,
2013-03-06 05:01:00,38.0,36.0,30.01,ENE,60,0.0,9.0,94,0.00,,,0.02,,2013-03-06 10:01:00,
2013-03-06 05:11:00,38.0,36.0,30.01,ENE,60,0.0,9.0,94,0.00,,,0.02,,2013-03-06 10:11:00,
2013-03-06 05:22:00,38.0,36.0,30.00,ENE,58,1.0,11.0,94,0.00,,,0.02,,2013-03-06 10:22:00,
2013-03-06 05:32:00,38.0,36.0,30.00,ENE,58,1.0,11.0,94,0.00,,,0.02,,2013-03-06 10:32:00,
2013-03-06 05:42:00,38.0,36.0,30.00,ENE,58,1.0,11.0,94,0.00,,,0.02,,2013-03-06 10:42:00,
2013-03-06 05:52:00,38.0,36.0,30.00,East,92,3.0,9.0,94,0.00,,,0.02,,2013-03-06 10:52:00,
2013-03-06 06:02:00,38.0,36.0,30.00,East,92,3.0,9.0,94,0.00,,,0.02,,2013-03-06 11:02:00,
2013-03-06 06:11:00,38.0,36.0,30.00,East,92,3.0,9.0,94,0.00,,,0.02,,2013-03-06 11:11:00,
2013-03-06 06:22:00,38.0,36.0,29.99,ENE,75,2.0,12.0,93,0.00,,,0.02,,2013-03-06 11:22:00,
2013-03-06 06:32:00,38.0,36.0,29.99,East,79,2.0,7.0,93,0.00,,,0.02,,2013-03-06 11:32:00,
2013-03-06 06:42:00,38.0,36.0,29.99,East,79,2.0,7.0,93,0.00,,,0.02,,2013-03-06 11:42:00,
2013-03-06 06:52:00,38.0,36.0,30.01,East,98,8.0,15.0,91,0.00,,,0.02,,2013-03-06 11:52:00,
2013-03-06 07:02:00,38.0,36.0,30.01,East,90,3.0,14.0,92,0.00,,,0.02,,2013-03-06 12:02:00,
2013-03-06 07:12:00,38.0,36.0,30.01,East,90,3.0,14.0,92,0.00,,,0.02,,2013-03-06 12:12:00,
2013-03-06 07:22:00,38.0,36.0,30.02,East,90,4.0,13.0,93,0.00,,,0.02,,2013-03-06 12:22:00,
2013-03-06 07:33:00,38.0,36.0,30.03,East,84,5.0,17.0,93,0.01,,,0.03,,2013-03-06 12:33:00,
2013-03-06 07:42:00,38.0,36.0,30.03,East,84,5.0,17.0,93,0.01,,,0.03,,2013-03-06 12:42:00,
2013-03-06 07:53:00,38.0,36.0,30.03,East,97,7.0,19.0,93,0.01,,,0.03,,2013-03-06 12:53:00,
2013-03-06 08:02:00,38.0,36.0,30.03,ESE,120,4.0,16.0,93,0.01,,,0.03,,2013-03-06 13:02:00,
2013-03-06 08:12:00,38.0,36.0,30.03,ESE,120,4.0,16.0,93,0.01,,,0.03,,2013-03-06 13:12:00,
2013-03-06 08:22:00,39.0,37.0,30.02,East,95,6.0,17.0,92,0.00,,,0.03,,2013-03-06 13:22:00,
2013-03-06 08:32:00,39.0,37.0,30.01,ENE,72,5.0,16.0,91,0.00,,,0.03,,2013-03-06 13:32:00,
2013-03-06 08:42:00,39.0,37.0,30.01,ENE,72,5.0,16.0,91,0.00,,,0.03,,2013-03-06 13:42:00,
2013-03-06 08:52:00,39.0,36.0,30.02,East,87,6.0,26.0,88,0.00,,,0.03,,2013-03-06 13:52:00,
2013-03-06 09:01:00,39.0,36.0,30.02,East,87,6.0,26.0,88,0.00,,,0.03,,2013-03-06 14:01:00,
2013-03-06 09:11:00,39.0,36.0,30.02,East,87,6.0,26.0,88,0.00,,,0.03,,2013-03-06 14:11:00,
2013-03-06 09:22:00,39.0,36.0,30.03,SE,125,6.0,18.0,89,0.00,,,0.03,,2013-03-06 14:22:00,
2013-03-06 09:32:00,39.0,36.0,30.04,ESE,105,9.0,19.0,89,0.00,,,0.03,,2013-03-06 14:32:00,
2013-03-06 09:42:00,39.0,36.0,30.04,ESE,105,9.0,19.0,89,0.00,,,0.03,,2013-03-06 14:42:00,
2013-03-06 09:53:00,39.0,35.0,30.04,East,83,6.0,18.0,87,0.00,,,0.03,,2013-03-06 14:53:00,
2013-03-06 10:02:00,39.0,36.0,30.04,East,93,6.0,19.0,88,0.00,,,0.03,,2013-03-06 15:02:00,
2013-03-06 10:12:00,39.0,36.0,30.04,East,93,6.0,19.0,88,0.00,,,0.03,,2013-03-06 15:12:00,
2013-03-06 10:22:00,39.0,35.0,30.02,East,93,6.0,17.0,87,0.00,,,0.03,,2013-03-06 15:22:00,
2013-03-06 10:32:00,40.0,36.0,30.02,East,88,3.0,16.0,84,0.00,,,0.03,,2013-03-06 15:32:00,
2013-03-06 10:42:00,40.0,36.0,30.02,East,88,3.0,16.0,84,0.00,,,0.03,,2013-03-06 15:42:00,
2013-03-06 10:52:00,40.0,35.0,30.02,East,80,13.0,30.0,83,0.00,,,0.03,,2013-03-06 15:52:00,
2013-03-06 11:02:00,40.0,35.0,30.02,East,80,13.0,30.0,83,0.00,,,0.03,,2013-03-06 16:02:00,
2013-03-06 11:12:00,40.0,35.0,30.02,East,80,13.0,30.0,83,0.00,,,0.03,,2013-03-06 16:12:00,
2013-03-06 11:21:00,40.0,35.0,30.01,East,98,3.0,22.0,82,0.00,,,0.03,,2013-03-06 16:21:00,
2013-03-06 11:32:00,41.0,36.0,30.00,ESE,107,6.0,20.0,82,0.00,,,0.03,,2013-03-06 16:32:00,
2013-03-06 11:42:00,41.0,36.0,30.00,ESE,107,6.0,20.0,82,0.00,,,0.03,,2013-03-06 16:42:00,
2013-03-06 11:52:00,41.0,37.0,30.01,ESE,112,12.0,23.0,86,0.00,,,0.03,,2013-03-06 16:52:00,
2013-03-06 12:01:00,42.0,37.0,30.01,East,88,6.0,18.0,81,0.00,,,0.03,,2013-03-06 17:01:00,
2013-03-06 12:11:00,42.0,37.0,30.01,East,88,6.0,18.0,81,0.00,,,0.03,,2013-03-06 17:11:00,
2013-03-06 12:22:00,40.0,37.0,30.01,East,81,5.0,21.0,88,0.00,,,0.03,,2013-03-06 17:22:00,
2013-03-06 12:32:00,40.0,36.0,30.00,ENE,74,6.0,19.0,87,0.00,,,0.03,,2013-03-06 17:32:00,
2013-03-06 12:42:00,40.0,36.0,30.00,ENE,74,6.0,19.0,87,0.00,,,0.03,,2013-03-06 17:42:00,
2013-03-06 12:53:00,41.0,37.0,29.99,East,94,8.0,21.0,84,0.00,,,0.03,,2013-03-06 17:53:00,
2013-03-06 13:02:00,41.0,36.0,29.99,ESE,103,6.0,19.0,83,0.00,,,0.03,,2013-03-06 18:02:00,
2013-03-06 13:29:00,41.0,36.0,29.98,East,90,7.0,21.0,83,0.00,,,0.02,,2013-03-06 18:29:00,
2013-03-06 13:42:00,41.0,36.0,29.98,East,80,6.0,23.0,82,0.00,,,0.02,,2013-03-06 18:42:00,
2013-03-06 13:53:00,41.0,35.0,29.97,ENE,72,11.0,25.0,80,0.00,,,0.02,,2013-03-06 18:53:00,
2013-03-06 14:02:00,41.0,36.0,29.97,ENE,76,9.0,25.0,82,0.00,,,0.02,,2013-03-06 19:02:00,
2013-03-06 14:11:00,41.0,36.0,29.97,ENE,76,9.0,25.0,82,0.00,,,0.02,,2013-03-06 19:11:00,
2013-03-06 14:22:00,41.0,36.0,29.97,East,80,7.0,19.0,81,0.00,,,0.02,,2013-03-06 19:22:00,
2013-03-06 14:32:00,40.0,34.0,29.97,ENE,68,8.0,20.0,80,0.00,,,0.02,,2013-03-06 19:32:00,
2013-03-06 14:43:00,40.0,34.0,29.97,ENE,68,8.0,20.0,80,0.00,,,0.02,,2013-03-06 19:43:00,
2013-03-06 14:53:00,40.0,34.0,29.96,ENE,72,10.0,34.0,79,0.00,,,0.02,,2013-03-06 19:53:00,
2013-03-06 15:02:00,40.0,34.0,29.97,East,89,7.0,20.0,80,0.00,,,0.02,,2013-03-06 20:02:00,
2013-03-06 15:12:00,40.0,34.0,29.97,East,89,7.0,20.0,80,0.00,,,0.02,,2013-03-06 20:12:00,
2013-03-06 15:22:00,40.0,35.0,29.97,ENE,73,9.0,30.0,81,0.00,,,0.02,,2013-03-06 20:22:00,
2013-03-06 15:32:00,40.0,35.0,29.97,ENE,73,9.0,30.0,81,0.00,,,0.02,,2013-03-06 20:32:00,
2013-03-06 15:42:00,40.0,35.0,29.97,ENE,73,9.0,30.0,81,0.00,,,0.02,,2013-03-06 20:42:00,
2013-03-06 15:53:00,40.0,35.0,29.96,ENE,78,11.0,38.0,83,0.00,,,0.02,,2013-03-06 20:53:00,
2013-03-06 16:02:00,39.0,35.0,29.96,East,90,9.0,26.0,84,0.00,,,0.02,,2013-03-06 21:02:00,
2013-03-06 16:12:00,39.0,35.0,29.96,East,90,9.0,26.0,84,0.00,,,0.02,,2013-03-06 21:12:00,
2013-03-06 16:22:00,39.0,35.0,29.96,East,88,6.0,26.0,85,0.00,,,0.02,,2013-03-06 21:22:00,
2013-03-06 16:32:00,39.0,35.0,29.96,East,88,6.0,26.0,85,0.00,,,0.02,,2013-03-06 21:32:00,
2013-03-06 16:42:00,39.0,35.0,29.96,East,88,6.0,26.0,85,0.00,,,0.02,,2013-03-06 21:42:00,
2013-03-06 16:52:00,39.0,35.0,29.97,East,92,9.0,23.0,87,0.00,,,0.02,,2013-03-06 21:52:00,
2013-03-06 17:02:00,39.0,35.0,29.96,East,85,8.0,21.0,87,0.00,,,0.02,,2013-03-06 22:02:00,
2013-03-06 17:11:00,39.0,35.0,29.96,East,85,8.0,21.0,87,0.00,,,0.02,,2013-03-06 22:11:00,
2013-03-06 17:22:00,39.0,35.0,29.96,ENE,68,5.0,30.0,87,0.00,,,0.02,,2013-03-06 22:22:00,
2013-03-06 17:32:00,39.0,36.0,29.95,East,84,7.0,25.0,88,0.00,,,0.02,,2013-03-06 22:32:00,
2013-03-06 17:42:00,39.0,36.0,29.95,East,84,7.0,25.0,88,0.00,,,0.02,,2013-03-06 22:42:00,
2013-03-06 17:52:00,39.0,36.0,29.95,ENE,72,7.0,17.0,88,0.00,,,0.02,,2013-03-06 22:52:00,
2013-03-06 18:01:00,38.0,35.0,29.96,ENE,77,7.0,20.0,90,0.00,,,0.02,,2013-03-06 23:01:00,
2013-03-06 18:11:00,38.0,35.0,29.96,ENE,77,7.0,20.0,90,0.00,,,0.02,,2013-03-06 23:11:00,
2013-03-06 18:22:00,38.0,36.0,29.96,ENE,75,8.0,18.0,91,0.00,,,0.02,,2013-03-06 23:22:00,
2013-03-06 18:32:00,38.0,36.0,29.96,ENE,67,13.0,29.0,91,0.00,,,0.02,,2013-03-06 23:32:00,
2013-03-06 18:42:00,38.0,36.0,29.96,ENE,67,13.0,29.0,91,0.00,,,0.02,,2013-03-06 23:42:00,
2013-03-06 18:52:00,39.0,36.0,29.95,ENE,74,8.0,25.0,89,0.00,,,0.02,,2013-03-06 23:52:00,
2013-03-06 19:02:00,39.0,36.0,29.95,ENE,75,10.0,25.0,88,0.00,,,0.02,,2013-03-07 00:02:00,
2013-03-06 19:11:00,39.0,36.0,29.95,ENE,75,10.0,25.0,88,0.00,,,0.02,,2013-03-07 00:11:00,
2013-03-06 19:22:00,39.0,35.0,29.95,ENE,73,13.0,25.0,86,0.00,,,0.02,,2013-03-07 00:22:00,
2013-03-06 19:32:00,39.0,35.0,29.95,ENE,78,10.0,25.0,87,0.00,,,0.02,,2013-03-07 00:32:00,
2013-03-06 19:42:00,39.0,35.0,29.95,ENE,78,10.0,25.0,87,0.00,,,0.02,,2013-03-07 00:42:00,
2013-03-06 19:52:00,38.0,35.0,29.94,ENE,65,11.0,19.0,89,0.00,,,0.02,,2013-03-07 00:52:00,
2013-03-06 20:01:00,39.0,36.0,29.94,ENE,67,12.0,28.0,88,0.00,,,0.02,,2013-03-07 01:01:00,
2013-03-06 20:11:00,39.0,36.0,29.94,ENE,67,12.0,28.0,88,0.00,,,0.02,,2013-03-07 01:11:00,
2013-03-06 20:21:00,39.0,35.0,29.94,ENE,66,13.0,25.0,87,0.00,,,0.02,,2013-03-07 01:21:00,
2013-03-06 20:32:00,39.0,36.0,29.94,ENE,70,9.0,25.0,88,0.00,,,0.02,,2013-03-07 01:32:00,
2013-03-06 20:42:00,39.0,36.0,29.94,ENE,70,9.0,25.0,88,0.00,,,0.02,,2013-03-07 01:42:00,
2013-03-06 20:52:00,38.0,35.0,29.93,ENE,61,12.0,32.0,89,0.00,,,0.02,,2013-03-07 01:52:00,
2013-03-06 21:01:00,38.0,35.0,29.92,ENE,63,13.0,36.0,90,0.00,,,0.02,,2013-03-07 02:01:00,
2013-03-06 21:11:00,38.0,35.0,29.92,ENE,63,13.0,36.0,90,0.00,,,0.02,,2013-03-07 02:11:00,
2013-03-06 21:21:00,38.0,35.0,29.91,ENE,63,9.0,29.0,90,0.00,,,0.02,,2013-03-07 02:21:00,
2013-03-06 21:32:00,38.0,35.0,29.91,ENE,60,12.0,32.0,90,0.00,,,0.02,,2013-03-07 02:32:00,
2013-03-06 21:42:00,38.0,35.0,29.91,ENE,60,12.0,32.0,90,0.00,,,0.02,,2013-03-07 02:42:00,
2013-03-06 21:52:00,38.0,35.0,29.91,ENE,60,12.0,32.0,90,0.00,,,0.02,,2013-03-07 02:52:00,
2013-03-06 22:02:00,38.0,35.0,29.91,NE,52,12.0,30.0,90,0.00,,,0.02,,2013-03-07 03:02:00,
2013-03-06 22:11:00,38.0,35.0,29.91,ENE,63,8.0,31.0,90,0.00,,,0.02,,2013-03-07 03:11:00,
2013-03-06 22:22:00,38.0,35.0,29.91,ENE,63,8.0,31.0,90,0.00,,,0.02,,2013-03-07 03:22:00,
2013-03-06 22:32:00,38.0,35.0,29.91,ENE,59,9.0,27.0,90,0.00,,,0.02,,2013-03-07 03:32:00,
2013-03-06 22:42:00,38.0,35.0,29.91,ENE,59,9.0,27.0,90,0.00,,,0.02,,2013-03-07 03:42:00,
2013-03-06 22:52:00,38.0,35.0,29.91,ENE,57,11.0,31.0,90,0.00,,,0.02,,2013-03-07 03:52:00,
2013-03-06 23:02:00,38.0,35.0,29.91,ENE,57,11.0,31.0,90,0.00,,,0.02,,2013-03-07 04:02:00,
2013-03-06 23:12:00,38.0,35.0,29.91,ENE,57,11.0,31.0,90,0.00,,,0.02,,2013-03-07 04:12:00,
2013-03-06 23:22:00,38.0,35.0,29.91,NE,47,14.0,29.0,90,0.00,,,0.03,,2013-03-07 04:22:00,
2013-03-06 23:32:00,38.0,35.0,29.91,NE,49,12.0,28.0,90,0.00,,,0.03,,2013-03-07 04:32:00,
2013-03-06 23:42:00,38.0,35.0,29.91,NE,49,12.0,28.0,90,0.00,,,0.03,,2013-03-07 04:42:00,
2013-03-06 23:52:00,38.0,35.0,29.90,NE,47,12.0,32.0,90,0.00,,,0.03,,2013-03-07 04:52:00,